Time;durP1;ratioP1;P1;durP2;ratioP2;P2;SDS_P1;SDS_P2;PMS_P1;PMS_P2;Temp;Humidity;BMP_temperature;BMP_pressure;BME280_temperature;BME280_humidity;BME280_pressure;Samples;Min_cycle;Max_cycle;Signal;HPM_P1;HPM_P2
2022/01/22 00:04:58;;;;;;;16.58;6.28;;;;;;;-0.44;80.74;100259.23;714469;1174;114152;-75
2022/01/22 00:20:01;;;;;;;15.40;5.70;;;;;;;-0.56;80.81;100265.73;713964;1174;115670;-75
2022/01/22 00:35:06;;;;;;;9.60;5.23;;;;;;;-0.68;80.87;100278.22;720531;1173;114890;-75
2022/01/22 00:50:11;;;;;;;15.15;6.00;;;;;;;-0.75;80.12;100278.53;714026;1174;114004;-76
2022/01/22 01:05:15;;;;;;;12.38;6.25;;;;;;;-0.52;80.41;100273.27;714097;1174;115680;-76
2022/01/22 01:35:40;;;;;;;7.60;3.40;;;;;;;-0.13;79.55;100270.78;713984;1174;115703;-75
2022/01/22 01:50:43;;;;;;;18.87;5.63;;;;;;;-0.37;80.26;100292.42;713798;1174;115581;-74
2022/01/22 02:05:45;;;;;;;7.20;3.35;;;;;;;-0.44;79.45;100269.54;714016;1174;115772;-75
2022/01/22 02:36:24;;;;;;;9.30;3.77;;;;;;;-0.12;78.78;100283.63;714201;1174;114667;-75
2022/01/22 02:51:27;;;;;;;6.95;2.13;;;;;;;0.35;78.90;100290.15;714007;1174;115380;-75
2022/01/22 03:06:30;;;;;;;4.28;1.88;;;;;;;0.72;77.13;100310.86;713893;1174;114629;-75
2022/01/22 03:21:40;;;;;;;6.17;1.73;;;;;;;0.94;76.45;100314.11;713907;1173;115475;-75
2022/01/22 03:36:42;;;;;;;3.68;1.63;;;;;;;1.12;76.23;100307.23;713933;1174;115208;-74
2022/01/22 03:51:45;;;;;;;4.68;1.83;;;;;;;1.35;75.75;100322.50;714020;1174;115223;-75
2022/01/22 04:37:29;;;;;;;8.75;3.28;;;;;;;1.56;75.46;100388.70;714029;1174;115329;-75
2022/01/22 04:52:44;;;;;;;16.63;5.17;;;;;;;1.75;75.93;100395.55;713985;1174;114432;-75
2022/01/22 05:07:46;;;;;;;14.90;4.08;;;;;;;1.75;76.35;100411.89;713728;1174;115242;-75
2022/01/22 05:23:13;;;;;;;13.48;4.63;;;;;;;1.83;76.55;100417.55;713874;1174;117352;-74
2022/01/22 05:38:15;;;;;;;26.30;7.48;;;;;;;1.56;77.78;100436.97;713875;1173;115521;-74
2022/01/22 06:08:30;;;;;;;14.78;4.53;;;;;;;1.31;81.40;100489.86;714087;1173;115477;-75
2022/01/22 06:23:32;;;;;;;15.77;5.37;;;;;;;1.38;83.75;100513.69;714093;1174;115057;-75
2022/01/22 06:38:35;;;;;;;29.67;10.03;;;;;;;1.48;84.88;100540.80;713744;1174;114583;-76
2022/01/22 06:53:40;;;;;;;32.95;12.10;;;;;;;1.53;86.45;100556.08;713943;1174;115629;-75
2022/01/22 07:08:46;;;;;;;154.20;40.43;;;;;;;1.57;88.73;100593.82;713715;1174;115309;-74
2022/01/22 07:38:51;;;;;;;128.43;41.98;;;;;;;1.85;90.82;100642.56;714073;1174;115275;-76
2022/01/22 07:53:53;;;;;;;431.25;139.13;;;;;;;2.38;91.25;100653.06;714215;1174;115079;-74
2022/01/22 08:08:55;;;;;;;132.73;52.87;;;;;;;2.49;91.66;100682.71;714073;1174;115920;-75
2022/01/22 08:23:59;;;;;;;42.43;21.20;;;;;;;2.66;90.76;100701.77;714577;1174;116071;-75
2022/01/22 08:39:02;;;;;;;43.10;21.40;;;;;;;2.80;91.09;100733.03;714622;1173;115505;-77
2022/01/22 08:54:08;;;;;;;26.97;14.67;;;;;;;2.90;90.10;100758.50;714711;1174;114820;-74
2022/01/22 09:09:12;;;;;;;138.75;37.68;;;;;;;3.37;88.76;100796.81;714080;1174;115545;-74
2022/01/22 09:24:16;;;;;;;90.73;28.33;;;;;;;3.89;87.52;100821.87;714498;1174;114269;-74
2022/01/22 09:39:19;;;;;;;109.20;26.23;;;;;;;4.48;84.58;100835.23;714200;1174;114140;-77
2022/01/22 09:54:21;;;;;;;35.70;12.58;;;;;;;5.03;82.66;100840.94;715253;1173;114341;-77
2022/01/22 10:09:34;;;;;;;169.70;54.73;;;;;;;5.41;80.45;100850.08;714672;1173;115084;-77
2022/01/22 10:24:46;;;;;;;46.60;17.98;;;;;;;4.58;78.68;100886.70;714704;1174;114915;-77
2022/01/22 10:39:49;;;;;;;51.40;17.25;;;;;;;4.86;78.08;100913.81;714950;1174;115317;-79
2022/01/22 10:55:02;;;;;;;18.58;8.20;;;;;;;4.66;77.38;100926.14;714958;1172;114549;-77
2022/01/22 11:10:05;;;;;;;62.85;32.40;;;;;;;5.26;76.28;100937.66;714292;1174;115353;-77
2022/01/22 11:25:08;;;;;;;12.75;6.90;;;;;;;6.72;75.00;100958.77;714512;1174;114777;-77
2022/01/22 11:40:16;;;;;;;46.90;18.30;;;;;;;6.66;72.88;100981.70;719417;1174;115617;-78
2022/01/22 11:55:18;;;;;;;112.40;42.83;;;;;;;6.35;72.23;100984.45;714237;1174;114723;-77
2022/01/22 12:10:37;;;;;;;24.43;12.70;;;;;;;6.17;71.28;101002.84;714401;1174;114937;-79
2022/01/22 12:25:41;;;;;;;43.25;14.85;;;;;;;6.13;70.05;101012.59;714679;1174;113906;-74
2022/01/22 12:40:44;;;;;;;28.80;11.73;;;;;;;7.32;69.91;101009.86;714360;1174;115278;-75
2022/01/22 13:10:54;;;;;;;25.05;10.73;;;;;;;8.60;67.52;101060.87;714379;1174;115450;-72
2022/01/22 13:26:00;;;;;;;15.68;6.73;;;;;;;7.37;64.71;101062.63;714406;1174;114124;-77
2022/01/22 13:56:55;;;;;;;22.00;9.30;;;;;;;6.38;63.23;101110.22;714726;1174;114847;-79
2022/01/22 14:12:07;;;;;;;18.50;7.45;;;;;;;4.87;65.17;101126.95;714942;1174;113976;-79
2022/01/22 14:27:20;;;;;;;21.03;10.00;;;;;;;4.24;68.58;101140.45;715000;1173;115906;-80
2022/01/22 14:58:07;;;;;;;112.45;37.65;;;;;;;3.94;72.24;101157.38;714599;1174;114429;-75
2022/01/22 15:13:10;;;;;;;48.73;19.78;;;;;;;3.80;73.23;101183.99;714516;1174;115721;-75
2022/01/22 15:28:15;;;;;;;26.35;12.20;;;;;;;3.45;75.71;101190.75;714587;1174;115114;-76
2022/01/22 15:43:18;;;;;;;69.20;27.10;;;;;;;3.22;78.92;101209.88;715059;1174;115035;-78
2022/01/22 15:58:23;;;;;;;72.17;26.70;;;;;;;2.99;80.91;101209.11;715367;1174;115957;-77
2022/01/22 16:13:27;;;;;;;138.28;49.83;;;;;;;3.01;81.35;101233.23;715814;1173;114102;-81
2022/01/22 16:28:30;;;;;;;192.63;74.28;;;;;;;2.80;82.36;101235.78;715808;1174;115665;-81
2022/01/22 16:43:35;;;;;;;98.33;42.28;;;;;;;2.69;83.17;101266.45;716746;1173;114250;-81
2022/01/22 16:58:46;;;;;;;34.43;15.23;;;;;;;2.72;83.60;101279.30;714910;1173;114020;-80
2022/01/22 17:29:09;;;;;;;33.25;14.45;;;;;;;2.70;83.92;101288.88;714567;1174;114812;-81
2022/01/22 17:44:13;;;;;;;35.90;14.88;;;;;;;2.66;83.30;101310.63;714456;1174;114786;-77
2022/01/22 17:59:16;;;;;;;36.55;13.98;;;;;;;2.55;82.38;101303.28;714621;1174;114950;-77
2022/01/22 18:14:19;;;;;;;157.87;55.97;;;;;;;2.48;80.98;101305.26;714658;1174;114824;-74
2022/01/22 18:29:21;;;;;;;27.53;13.53;;;;;;;2.44;80.65;101306.28;715036;1174;114745;-73
2022/01/22 18:44:25;;;;;;;48.97;21.27;;;;;;;2.45;78.12;101320.06;714668;1174;114762;-75
2022/01/22 18:59:27;;;;;;;29.68;12.23;;;;;;;2.41;76.42;101336.63;715510;1174;115445;-75
2022/01/22 19:14:30;;;;;;;42.45;13.35;;;;;;;2.45;75.32;101330.42;715520;1173;115727;-76
2022/01/22 19:29:33;;;;;;;23.18;8.70;;;;;;;2.36;75.46;101348.89;715788;1174;114778;-82
2022/01/22 19:44:41;;;;;;;48.17;19.50;;;;;;;2.39;76.16;101333.23;715925;1173;113922;-83
2022/01/22 19:59:44;;;;;;;47.60;17.13;;;;;;;2.39;76.60;101328.91;717654;1174;114072;-84
2022/01/22 20:15:01;;;;;;;26.60;12.53;;;;;;;2.23;76.60;101332.95;715522;1174;115184;-82
2022/01/22 20:30:11;;;;;;;24.75;9.98;;;;;;;2.20;77.15;101348.61;715598;1174;115059;-74
2022/01/22 20:45:15;;;;;;;26.78;11.78;;;;;;;2.12;77.78;101352.30;715317;1174;115021;-74
2022/01/22 21:00:19;;;;;;;84.00;37.48;;;;;;;2.11;78.53;101360.99;715110;1174;115536;-74
2022/01/22 21:15:22;;;;;;;34.83;17.77;;;;;;;2.16;78.50;101361.67;714900;1174;114986;-75
2022/01/22 21:30:25;;;;;;;54.13;17.18;;;;;;;2.09;78.59;101393.02;714977;1174;115050;-74
2022/01/22 21:45:27;;;;;;;65.10;22.23;;;;;;;2.05;78.56;101388.84;714510;1173;114745;-74
2022/01/22 22:00:30;;;;;;;169.30;55.18;;;;;;;1.97;78.18;101382.17;714482;1174;116065;-74
2022/01/22 22:15:39;;;;;;;32.60;16.78;;;;;;;1.94;78.61;101408.17;714676;1173;115511;-73
2022/01/22 22:30:41;;;;;;;68.37;24.87;;;;;;;1.86;79.07;101411.91;714470;1174;114929;-73
2022/01/22 22:45:44;;;;;;;26.23;10.25;;;;;;;1.85;79.18;101405.03;714373;1174;115078;-74
2022/01/22 23:00:58;;;;;;;16.88;6.53;;;;;;;1.84;79.32;101396.44;714611;1174;115128;-79
2022/01/22 23:16:10;;;;;;;60.58;21.08;;;;;;;1.96;79.06;101402.94;714688;1174;115740;-79
2022/01/22 23:31:57;;;;;;;22.27;7.27;;;;;;;1.92;79.60;101406.53;714805;1173;114148;-77
